Terminal Aerodrome Forecast
Issued by NWS Austin/San Antonio, TX

Home | Current Version | Previous Version | Text Only | Print | Product List | Glossary On
Versions: 1 2 3 4 5 6 7 8 9 10 11 12 13 14 15 16 17 18 19 20 21 22 23 24
000
FTUS44 KEWX 042046 AAA
TAFAUS
TAF AMD
KAUS 042046Z 0421/0524 36013KT P6SM -SHRA BKN012 OVC025
      TEMPO 0421/0424 3SM SHRA
     FM050200 01012KT P6SM -SHRA OVC008
      TEMPO 0506/0510 2SM -TSRA BR OVC007CB
     FM052200 28008KT P6SM VCSH SCT010 OVC030=

USA.gov is the U.S. government's official web portal to all federal, state and local government web resources and services.